sensor_id;sensor_type;location;lat;lon;timestamp;P1;durP1;ratioP1;P2;durP2;ratioP2
77136;SDS011;66102;48.542;-2.970;2023-04-06T00:00:55;8.88;;;4.65;;
77136;SDS011;66102;48.542;-2.970;2023-04-06T00:03:21;8.75;;;4.55;;
77136;SDS011;66102;48.542;-2.970;2023-04-06T00:05:47;10.15;;;5.18;;
77136;SDS011;66102;48.542;-2.970;2023-04-06T00:08:13;10.27;;;4.93;;
77136;SDS011;66102;48.542;-2.970;2023-04-06T00:10:39;10.77;;;5.22;;
77136;SDS011;66102;48.542;-2.970;2023-04-06T00:13:05;12.15;;;4.85;;
77136;SDS011;66102;48.542;-2.970;2023-04-06T00:15:32;12.50;;;5.53;;
77136;SDS011;66102;48.542;-2.970;2023-04-06T00:17:59;12.50;;;5.00;;
77136;SDS011;66102;48.542;-2.970;2023-04-06T00:20:25;10.40;;;4.22;;
77136;SDS011;66102;48.542;-2.970;2023-04-06T00:22:51;9.45;;;5.10;;
77136;SDS011;66102;48.542;-2.970;2023-04-06T00:25:17;10.63;;;4.75;;
77136;SDS011;66102;48.542;-2.970;2023-04-06T00:27:43;9.05;;;4.78;;
77136;SDS011;66102;48.542;-2.970;2023-04-06T00:30:09;10.95;;;4.85;;
77136;SDS011;66102;48.542;-2.970;2023-04-06T00:32:35;9.65;;;4.68;;
77136;SDS011;66102;48.542;-2.970;2023-04-06T00:35:05;9.90;;;5.07;;
77136;SDS011;66102;48.542;-2.970;2023-04-06T00:37:31;8.68;;;5.00;;
77136;SDS011;66102;48.542;-2.970;2023-04-06T00:39:57;9.52;;;5.28;;
77136;SDS011;66102;48.542;-2.970;2023-04-06T00:42:24;11.48;;;5.40;;
77136;SDS011;66102;48.542;-2.970;2023-04-06T00:45:00;10.88;;;5.18;;
77136;SDS011;66102;48.542;-2.970;2023-04-06T00:47:26;8.88;;;4.65;;
77136;SDS011;66102;48.542;-2.970;2023-04-06T00:49:53;11.13;;;4.82;;
77136;SDS011;66102;48.542;-2.970;2023-04-06T00:52:19;11.48;;;5.60;;
77136;SDS011;66102;48.542;-2.970;2023-04-06T00:54:45;8.85;;;4.82;;
77136;SDS011;66102;48.542;-2.970;2023-04-06T00:57:12;9.57;;;4.65;;
77136;SDS011;66102;48.542;-2.970;2023-04-06T00:59:39;9.57;;;5.07;;
77136;SDS011;66102;48.542;-2.970;2023-04-06T01:02:05;12.20;;;5.03;;
77136;SDS011;66102;48.542;-2.970;2023-04-06T01:04:32;12.35;;;4.82;;
77136;SDS011;66102;48.542;-2.970;2023-04-06T01:06:58;10.63;;;5.00;;
77136;SDS011;66102;48.542;-2.970;2023-04-06T01:09:24;8.77;;;4.40;;
77136;SDS011;66102;48.542;-2.970;2023-04-06T01:11:51;9.10;;;4.60;;
77136;SDS011;66102;48.542;-2.970;2023-04-06T01:14:17;9.57;;;5.05;;
77136;SDS011;66102;48.542;-2.970;2023-04-06T01:16:43;8.85;;;4.50;;
77136;SDS011;66102;48.542;-2.970;2023-04-06T01:19:09;9.90;;;5.57;;
77136;SDS011;66102;48.542;-2.970;2023-04-06T01:21:36;12.68;;;4.43;;
77136;SDS011;66102;48.542;-2.970;2023-04-06T01:24:02;11.90;;;5.78;;
77136;SDS011;66102;48.542;-2.970;2023-04-06T01:26:28;8.88;;;5.05;;
77136;SDS011;66102;48.542;-2.970;2023-04-06T01:28:55;11.18;;;5.15;;
77136;SDS011;66102;48.542;-2.970;2023-04-06T01:31:22;12.27;;;5.15;;
77136;SDS011;66102;48.542;-2.970;2023-04-06T01:33:48;13.10;;;5.20;;
77136;SDS011;66102;48.542;-2.970;2023-04-06T01:36:14;10.80;;;4.78;;
77136;SDS011;66102;48.542;-2.970;2023-04-06T01:38:40;7.82;;;4.60;;
77136;SDS011;66102;48.542;-2.970;2023-04-06T01:41:07;8.38;;;4.68;;
77136;SDS011;66102;48.542;-2.970;2023-04-06T01:43:33;10.48;;;5.50;;
77136;SDS011;66102;48.542;-2.970;2023-04-06T01:45:59;10.40;;;5.60;;
77136;SDS011;66102;48.542;-2.970;2023-04-06T01:48:26;10.20;;;5.68;;
77136;SDS011;66102;48.542;-2.970;2023-04-06T01:50:52;12.18;;;5.07;;
77136;SDS011;66102;48.542;-2.970;2023-04-06T01:53:18;9.65;;;5.20;;
77136;SDS011;66102;48.542;-2.970;2023-04-06T01:55:44;10.48;;;5.32;;
77136;SDS011;66102;48.542;-2.970;2023-04-06T01:58:11;12.52;;;6.63;;
77136;SDS011;66102;48.542;-2.970;2023-04-06T02:00:37;10.18;;;5.05;;
77136;SDS011;66102;48.542;-2.970;2023-04-06T02:03:03;12.30;;;6.13;;
77136;SDS011;66102;48.542;-2.970;2023-04-06T02:05:30;9.85;;;5.70;;
77136;SDS011;66102;48.542;-2.970;2023-04-06T02:07:56;13.27;;;6.05;;
77136;SDS011;66102;48.542;-2.970;2023-04-06T02:10:22;9.80;;;4.85;;
77136;SDS011;66102;48.542;-2.970;2023-04-06T02:12:49;11.77;;;5.85;;
77136;SDS011;66102;48.542;-2.970;2023-04-06T02:15:15;11.35;;;6.05;;
77136;SDS011;66102;48.542;-2.970;2023-04-06T02:17:42;11.95;;;5.97;;
77136;SDS011;66102;48.542;-2.970;2023-04-06T02:20:08;10.73;;;5.78;;
77136;SDS011;66102;48.542;-2.970;2023-04-06T02:22:34;13.93;;;6.13;;
77136;SDS011;66102;48.542;-2.970;2023-04-06T02:25:01;14.07;;;5.70;;
77136;SDS011;66102;48.542;-2.970;2023-04-06T02:27:27;13.07;;;5.72;;
77136;SDS011;66102;48.542;-2.970;2023-04-06T02:29:53;10.18;;;5.93;;
77136;SDS011;66102;48.542;-2.970;2023-04-06T02:32:19;11.05;;;6.03;;
77136;SDS011;66102;48.542;-2.970;2023-04-06T02:34:45;11.98;;;5.68;;
77136;SDS011;66102;48.542;-2.970;2023-04-06T02:37:11;13.00;;;6.05;;
77136;SDS011;66102;48.542;-2.970;2023-04-06T02:39:37;8.75;;;5.05;;
77136;SDS011;66102;48.542;-2.970;2023-04-06T02:42:03;11.13;;;5.95;;
77136;SDS011;66102;48.542;-2.970;2023-04-06T02:44:29;9.35;;;5.00;;
77136;SDS011;66102;48.542;-2.970;2023-04-06T02:46:55;11.25;;;5.53;;
77136;SDS011;66102;48.542;-2.970;2023-04-06T02:49:21;9.57;;;5.07;;
77136;SDS011;66102;48.542;-2.970;2023-04-06T02:51:47;14.70;;;6.05;;
77136;SDS011;66102;48.542;-2.970;2023-04-06T02:54:13;12.05;;;5.88;;
77136;SDS011;66102;48.542;-2.970;2023-04-06T02:56:40;12.57;;;5.53;;
77136;SDS011;66102;48.542;-2.970;2023-04-06T02:59:06;11.63;;;6.00;;
77136;SDS011;66102;48.542;-2.970;2023-04-06T03:01:32;10.85;;;4.90;;
77136;SDS011;66102;48.542;-2.970;2023-04-06T03:03:58;9.40;;;5.03;;
77136;SDS011;66102;48.542;-2.970;2023-04-06T03:06:24;10.68;;;5.03;;
77136;SDS011;66102;48.542;-2.970;2023-04-06T03:08:50;10.98;;;6.15;;
77136;SDS011;66102;48.542;-2.970;2023-04-06T03:11:16;9.60;;;4.63;;
77136;SDS011;66102;48.542;-2.970;2023-04-06T03:13:42;10.63;;;5.68;;
77136;SDS011;66102;48.542;-2.970;2023-04-06T03:16:08;10.43;;;5.55;;
77136;SDS011;66102;48.542;-2.970;2023-04-06T03:18:34;10.70;;;4.93;;
77136;SDS011;66102;48.542;-2.970;2023-04-06T03:21:00;9.15;;;4.57;;
77136;SDS011;66102;48.542;-2.970;2023-04-06T03:23:26;9.23;;;4.43;;
77136;SDS011;66102;48.542;-2.970;2023-04-06T03:25:52;10.77;;;5.45;;
77136;SDS011;66102;48.542;-2.970;2023-04-06T03:28:18;10.23;;;5.40;;
77136;SDS011;66102;48.542;-2.970;2023-04-06T03:30:45;11.57;;;4.90;;
77136;SDS011;66102;48.542;-2.970;2023-04-06T03:33:11;10.10;;;5.03;;
77136;SDS011;66102;48.542;-2.970;2023-04-06T03:35:37;10.07;;;5.30;;
77136;SDS011;66102;48.542;-2.970;2023-04-06T03:38:03;8.95;;;4.72;;
77136;SDS011;66102;48.542;-2.970;2023-04-06T03:40:30;9.05;;;4.57;;
77136;SDS011;66102;48.542;-2.970;2023-04-06T03:42:56;9.40;;;5.10;;
77136;SDS011;66102;48.542;-2.970;2023-04-06T03:45:22;10.38;;;4.85;;
77136;SDS011;66102;48.542;-2.970;2023-04-06T03:47:49;10.82;;;4.95;;
77136;SDS011;66102;48.542;-2.970;2023-04-06T03:50:15;8.75;;;4.82;;
77136;SDS011;66102;48.542;-2.970;2023-04-06T03:52:41;8.20;;;4.70;;
77136;SDS011;66102;48.542;-2.970;2023-04-06T03:55:07;8.60;;;4.78;;
77136;SDS011;66102;48.542;-2.970;2023-04-06T03:57:33;9.10;;;4.20;;
77136;SDS011;66102;48.542;-2.970;2023-04-06T03:59:59;8.52;;;4.55;;
77136;SDS011;66102;48.542;-2.970;2023-04-06T04:02:25;9.63;;;4.53;;
77136;SDS011;66102;48.542;-2.970;2023-04-06T04:04:51;9.73;;;4.88;;
77136;SDS011;66102;48.542;-2.970;2023-04-06T04:07:18;8.55;;;5.13;;
77136;SDS011;66102;48.542;-2.970;2023-04-06T04:09:44;9.48;;;4.90;;
77136;SDS011;66102;48.542;-2.970;2023-04-06T04:12:10;8.35;;;4.30;;
77136;SDS011;66102;48.542;-2.970;2023-04-06T04:14:36;9.02;;;4.93;;
77136;SDS011;66102;48.542;-2.970;2023-04-06T04:17:02;9.10;;;5.30;;
77136;SDS011;66102;48.542;-2.970;2023-04-06T04:19:28;9.13;;;4.72;;
77136;SDS011;66102;48.542;-2.970;2023-04-06T04:21:54;9.82;;;5.18;;
77136;SDS011;66102;48.542;-2.970;2023-04-06T04:24:20;9.30;;;5.10;;
77136;SDS011;66102;48.542;-2.970;2023-04-06T04:26:46;9.02;;;4.53;;
77136;SDS011;66102;48.542;-2.970;2023-04-06T04:29:12;10.00;;;6.20;;
77136;SDS011;66102;48.542;-2.970;2023-04-06T04:31:38;10.73;;;5.47;;
77136;SDS011;66102;48.542;-2.970;2023-04-06T04:34:04;9.48;;;4.57;;
77136;SDS011;66102;48.542;-2.970;2023-04-06T04:36:31;8.80;;;5.15;;
77136;SDS011;66102;48.542;-2.970;2023-04-06T04:38:57;9.93;;;4.85;;
77136;SDS011;66102;48.542;-2.970;2023-04-06T04:41:26;8.55;;;4.70;;
77136;SDS011;66102;48.542;-2.970;2023-04-06T04:43:52;8.00;;;4.32;;
77136;SDS011;66102;48.542;-2.970;2023-04-06T04:46:18;8.63;;;4.63;;
77136;SDS011;66102;48.542;-2.970;2023-04-06T04:48:44;8.45;;;4.03;;
77136;SDS011;66102;48.542;-2.970;2023-04-06T04:51:10;10.13;;;4.35;;
77136;SDS011;66102;48.542;-2.970;2023-04-06T04:53:36;7.97;;;4.18;;
77136;SDS011;66102;48.542;-2.970;2023-04-06T04:56:02;6.97;;;3.40;;
77136;SDS011;66102;48.542;-2.970;2023-04-06T04:58:28;8.90;;;3.97;;
77136;SDS011;66102;48.542;-2.970;2023-04-06T05:00:55;8.98;;;4.50;;
77136;SDS011;66102;48.542;-2.970;2023-04-06T05:03:22;8.27;;;4.03;;
77136;SDS011;66102;48.542;-2.970;2023-04-06T05:05:48;7.93;;;4.35;;
77136;SDS011;66102;48.542;-2.970;2023-04-06T05:08:15;7.40;;;3.63;;
77136;SDS011;66102;48.542;-2.970;2023-04-06T05:10:41;7.57;;;4.15;;
77136;SDS011;66102;48.542;-2.970;2023-04-06T05:13:07;7.93;;;4.10;;
77136;SDS011;66102;48.542;-2.970;2023-04-06T05:15:33;8.13;;;3.75;;
77136;SDS011;66102;48.542;-2.970;2023-04-06T05:18:00;8.25;;;4.28;;
77136;SDS011;66102;48.542;-2.970;2023-04-06T05:20:26;10.63;;;5.13;;
77136;SDS011;66102;48.542;-2.970;2023-04-06T05:22:53;7.55;;;3.78;;
77136;SDS011;66102;48.542;-2.970;2023-04-06T05:25:19;7.13;;;3.85;;
77136;SDS011;66102;48.542;-2.970;2023-04-06T05:27:45;7.90;;;3.65;;
77136;SDS011;66102;48.542;-2.970;2023-04-06T05:30:11;7.40;;;3.60;;
77136;SDS011;66102;48.542;-2.970;2023-04-06T05:32:37;8.25;;;4.25;;
77136;SDS011;66102;48.542;-2.970;2023-04-06T05:35:03;8.07;;;4.05;;
77136;SDS011;66102;48.542;-2.970;2023-04-06T05:37:30;6.88;;;3.38;;
77136;SDS011;66102;48.542;-2.970;2023-04-06T05:39:56;7.78;;;4.43;;
77136;SDS011;66102;48.542;-2.970;2023-04-06T05:42:22;8.35;;;3.92;;
77136;SDS011;66102;48.542;-2.970;2023-04-06T05:44:48;9.27;;;4.13;;
77136;SDS011;66102;48.542;-2.970;2023-04-06T05:47:14;9.82;;;3.70;;
77136;SDS011;66102;48.542;-2.970;2023-04-06T05:49:43;8.05;;;4.20;;
77136;SDS011;66102;48.542;-2.970;2023-04-06T05:52:09;9.45;;;5.32;;
77136;SDS011;66102;48.542;-2.970;2023-04-06T05:54:36;10.25;;;5.00;;
77136;SDS011;66102;48.542;-2.970;2023-04-06T05:57:03;9.43;;;4.68;;
77136;SDS011;66102;48.542;-2.970;2023-04-06T05:59:32;9.95;;;4.78;;
77136;SDS011;66102;48.542;-2.970;2023-04-06T06:01:58;7.85;;;3.15;;
77136;SDS011;66102;48.542;-2.970;2023-04-06T06:04:26;10.13;;;4.40;;
77136;SDS011;66102;48.542;-2.970;2023-04-06T06:06:52;5.80;;;2.40;;
77136;SDS011;66102;48.542;-2.970;2023-04-06T06:09:18;7.78;;;2.97;;
77136;SDS011;66102;48.542;-2.970;2023-04-06T06:11:44;7.25;;;2.40;;
77136;SDS011;66102;48.542;-2.970;2023-04-06T06:14:10;5.53;;;1.95;;
77136;SDS011;66102;48.542;-2.970;2023-04-06T06:16:36;8.73;;;2.17;;
77136;SDS011;66102;48.542;-2.970;2023-04-06T06:19:02;7.10;;;2.08;;
77136;SDS011;66102;48.542;-2.970;2023-04-06T06:21:28;7.20;;;2.05;;
77136;SDS011;66102;48.542;-2.970;2023-04-06T06:23:56;4.90;;;1.90;;
77136;SDS011;66102;48.542;-2.970;2023-04-06T06:26:22;7.60;;;2.15;;
77136;SDS011;66102;48.542;-2.970;2023-04-06T06:28:48;9.45;;;2.45;;
77136;SDS011;66102;48.542;-2.970;2023-04-06T06:31:14;7.70;;;2.35;;
77136;SDS011;66102;48.542;-2.970;2023-04-06T06:33:41;5.97;;;1.70;;
77136;SDS011;66102;48.542;-2.970;2023-04-06T06:36:07;5.72;;;1.90;;
77136;SDS011;66102;48.542;-2.970;2023-04-06T06:38:33;5.38;;;1.80;;
77136;SDS011;66102;48.542;-2.970;2023-04-06T06:40:59;4.72;;;2.28;;
77136;SDS011;66102;48.542;-2.970;2023-04-06T06:43:25;5.18;;;2.00;;
77136;SDS011;66102;48.542;-2.970;2023-04-06T06:45:51;5.13;;;2.10;;
77136;SDS011;66102;48.542;-2.970;2023-04-06T06:48:17;6.97;;;2.08;;
77136;SDS011;66102;48.542;-2.970;2023-04-06T06:50:43;5.50;;;1.88;;
77136;SDS011;66102;48.542;-2.970;2023-04-06T06:53:09;6.75;;;2.20;;
77136;SDS011;66102;48.542;-2.970;2023-04-06T06:55:36;6.97;;;2.35;;
77136;SDS011;66102;48.542;-2.970;2023-04-06T06:58:02;4.80;;;1.70;;
77136;SDS011;66102;48.542;-2.970;2023-04-06T07:00:28;7.47;;;2.88;;
77136;SDS011;66102;48.542;-2.970;2023-04-06T07:02:54;6.75;;;2.28;;
77136;SDS011;66102;48.542;-2.970;2023-04-06T07:05:20;5.75;;;2.10;;
77136;SDS011;66102;48.542;-2.970;2023-04-06T07:07:46;6.13;;;1.80;;
77136;SDS011;66102;48.542;-2.970;2023-04-06T07:10:13;6.18;;;1.67;;
77136;SDS011;66102;48.542;-2.970;2023-04-06T07:12:39;6.93;;;1.80;;
77136;SDS011;66102;48.542;-2.970;2023-04-06T07:15:05;5.53;;;1.35;;
77136;SDS011;66102;48.542;-2.970;2023-04-06T07:17:31;4.55;;;1.15;;
77136;SDS011;66102;48.542;-2.970;2023-04-06T07:19:57;6.03;;;1.67;;
77136;SDS011;66102;48.542;-2.970;2023-04-06T07:22:23;4.53;;;1.20;;
77136;SDS011;66102;48.542;-2.970;2023-04-06T07:24:49;6.07;;;1.65;;
77136;SDS011;66102;48.542;-2.970;2023-04-06T07:27:16;7.18;;;1.73;;
77136;SDS011;66102;48.542;-2.970;2023-04-06T07:29:43;7.13;;;1.88;;
77136;SDS011;66102;48.542;-2.970;2023-04-06T07:32:09;5.95;;;1.90;;
77136;SDS011;66102;48.542;-2.970;2023-04-06T07:34:35;6.15;;;2.00;;
77136;SDS011;66102;48.542;-2.970;2023-04-06T07:37:03;5.88;;;1.95;;
77136;SDS011;66102;48.542;-2.970;2023-04-06T07:39:29;7.30;;;1.88;;
77136;SDS011;66102;48.542;-2.970;2023-04-06T07:41:55;6.13;;;1.38;;
77136;SDS011;66102;48.542;-2.970;2023-04-06T07:44:21;4.80;;;1.35;;
77136;SDS011;66102;48.542;-2.970;2023-04-06T07:46:47;7.93;;;2.47;;
77136;SDS011;66102;48.542;-2.970;2023-04-06T07:49:13;5.03;;;1.40;;
77136;SDS011;66102;48.542;-2.970;2023-04-06T07:51:39;8.50;;;1.30;;
77136;SDS011;66102;48.542;-2.970;2023-04-06T07:54:05;6.78;;;1.40;;
77136;SDS011;66102;48.542;-2.970;2023-04-06T07:56:31;6.25;;;1.27;;
77136;SDS011;66102;48.542;-2.970;2023-04-06T07:58:57;5.20;;;1.45;;
77136;SDS011;66102;48.542;-2.970;2023-04-06T08:01:24;5.07;;;1.55;;
77136;SDS011;66102;48.542;-2.970;2023-04-06T08:03:51;5.28;;;1.20;;
77136;SDS011;66102;48.542;-2.970;2023-04-06T08:06:17;6.13;;;2.35;;
77136;SDS011;66102;48.542;-2.970;2023-04-06T08:08:43;6.10;;;1.75;;
77136;SDS011;66102;48.542;-2.970;2023-04-06T08:11:09;7.80;;;1.63;;
77136;SDS011;66102;48.542;-2.970;2023-04-06T08:13:36;7.15;;;1.73;;
77136;SDS011;66102;48.542;-2.970;2023-04-06T08:16:02;5.93;;;1.35;;
77136;SDS011;66102;48.542;-2.970;2023-04-06T08:18:28;3.40;;;1.15;;
77136;SDS011;66102;48.542;-2.970;2023-04-06T08:20:55;6.03;;;1.52;;
77136;SDS011;66102;48.542;-2.970;2023-04-06T08:23:21;4.57;;;1.40;;
77136;SDS011;66102;48.542;-2.970;2023-04-06T08:25:47;5.68;;;1.50;;
77136;SDS011;66102;48.542;-2.970;2023-04-06T08:28:13;5.65;;;1.50;;
77136;SDS011;66102;48.542;-2.970;2023-04-06T08:30:41;4.15;;;1.30;;
77136;SDS011;66102;48.542;-2.970;2023-04-06T08:33:07;4.40;;;1.20;;
77136;SDS011;66102;48.542;-2.970;2023-04-06T08:35:33;4.20;;;1.10;;
77136;SDS011;66102;48.542;-2.970;2023-04-06T08:37:59;4.85;;;1.20;;
77136;SDS011;66102;48.542;-2.970;2023-04-06T08:40:25;7.00;;;1.40;;
77136;SDS011;66102;48.542;-2.970;2023-04-06T08:42:52;4.82;;;0.85;;
77136;SDS011;66102;48.542;-2.970;2023-04-06T08:45:20;6.30;;;1.33;;
77136;SDS011;66102;48.542;-2.970;2023-04-06T08:47:47;4.50;;;1.27;;
77136;SDS011;66102;48.542;-2.970;2023-04-06T08:50:13;9.82;;;2.15;;
77136;SDS011;66102;48.542;-2.970;2023-04-06T08:52:40;6.60;;;2.53;;
77136;SDS011;66102;48.542;-2.970;2023-04-06T08:55:06;9.32;;;2.00;;
77136;SDS011;66102;48.542;-2.970;2023-04-06T08:57:32;7.55;;;1.38;;
77136;SDS011;66102;48.542;-2.970;2023-04-06T08:59:59;5.55;;;1.60;;
77136;SDS011;66102;48.542;-2.970;2023-04-06T09:02:26;7.18;;;1.27;;
77136;SDS011;66102;48.542;-2.970;2023-04-06T09:04:53;4.65;;;1.10;;
77136;SDS011;66102;48.542;-2.970;2023-04-06T09:07:20;3.78;;;1.05;;
77136;SDS011;66102;48.542;-2.970;2023-04-06T09:09:46;5.55;;;1.10;;
77136;SDS011;66102;48.542;-2.970;2023-04-06T09:15:17;5.43;;;1.30;;
77136;SDS011;66102;48.542;-2.970;2023-04-06T09:17:43;5.63;;;1.00;;
77136;SDS011;66102;48.542;-2.970;2023-04-06T09:20:10;5.38;;;1.33;;
77136;SDS011;66102;48.542;-2.970;2023-04-06T09:22:37;5.15;;;0.95;;
77136;SDS011;66102;48.542;-2.970;2023-04-06T09:25:03;7.65;;;1.33;;
77136;SDS011;66102;48.542;-2.970;2023-04-06T09:27:34;7.20;;;1.40;;
77136;SDS011;66102;48.542;-2.970;2023-04-06T09:32:30;4.68;;;1.30;;
77136;SDS011;66102;48.542;-2.970;2023-04-06T09:35:06;9.52;;;1.50;;
77136;SDS011;66102;48.542;-2.970;2023-04-06T09:37:32;5.32;;;1.30;;
77136;SDS011;66102;48.542;-2.970;2023-04-06T09:40:16;6.18;;;1.55;;
77136;SDS011;66102;48.542;-2.970;2023-04-06T09:42:47;4.75;;;1.40;;
77136;SDS011;66102;48.542;-2.970;2023-04-06T09:45:13;6.18;;;1.60;;
77136;SDS011;66102;48.542;-2.970;2023-04-06T09:47:40;5.15;;;1.60;;
77136;SDS011;66102;48.542;-2.970;2023-04-06T09:50:09;5.78;;;1.88;;
77136;SDS011;66102;48.542;-2.970;2023-04-06T09:55:05;8.00;;;2.03;;
77136;SDS011;66102;48.542;-2.970;2023-04-06T09:58:16;7.43;;;1.63;;
77136;SDS011;66102;48.542;-2.970;2023-04-06T10:00:22;5.95;;;1.80;;
77136;SDS011;66102;48.542;-2.970;2023-04-06T10:03:03;8.40;;;1.67;;
77136;SDS011;66102;48.542;-2.970;2023-04-06T10:08:07;6.57;;;1.45;;
77136;SDS011;66102;48.542;-2.970;2023-04-06T10:10:34;6.05;;;1.48;;
77136;SDS011;66102;48.542;-2.970;2023-04-06T10:13:00;7.85;;;1.63;;
77136;SDS011;66102;48.542;-2.970;2023-04-06T10:15:28;7.05;;;1.52;;
77136;SDS011;66102;48.542;-2.970;2023-04-06T10:18:00;5.57;;;1.30;;
77136;SDS011;66102;48.542;-2.970;2023-04-06T10:20:28;5.47;;;1.70;;
77136;SDS011;66102;48.542;-2.970;2023-04-06T10:22:56;6.78;;;1.42;;
77136;SDS011;66102;48.542;-2.970;2023-04-06T10:25:28;9.70;;;1.73;;
77136;SDS011;66102;48.542;-2.970;2023-04-06T10:28:01;8.63;;;1.50;;
77136;SDS011;66102;48.542;-2.970;2023-04-06T10:30:30;5.50;;;1.30;;
77136;SDS011;66102;48.542;-2.970;2023-04-06T10:32:56;8.57;;;1.80;;
77136;SDS011;66102;48.542;-2.970;2023-04-06T10:35:22;8.68;;;1.60;;
77136;SDS011;66102;48.542;-2.970;2023-04-06T10:40:22;12.90;;;1.92;;
77136;SDS011;66102;48.542;-2.970;2023-04-06T10:42:49;6.22;;;1.50;;
77136;SDS011;66102;48.542;-2.970;2023-04-06T10:45:18;8.00;;;1.58;;
77136;SDS011;66102;48.542;-2.970;2023-04-06T10:47:45;5.10;;;1.00;;
77136;SDS011;66102;48.542;-2.970;2023-04-06T10:50:13;6.63;;;1.23;;
77136;SDS011;66102;48.542;-2.970;2023-04-06T10:52:40;6.22;;;1.30;;
77136;SDS011;66102;48.542;-2.970;2023-04-06T10:55:07;8.27;;;1.23;;
77136;SDS011;66102;48.542;-2.970;2023-04-06T10:57:35;7.63;;;1.50;;
77136;SDS011;66102;48.542;-2.970;2023-04-06T11:00:03;6.75;;;1.38;;
77136;SDS011;66102;48.542;-2.970;2023-04-06T11:02:29;12.02;;;1.95;;
77136;SDS011;66102;48.542;-2.970;2023-04-06T11:04:56;5.90;;;1.30;;
77136;SDS011;66102;48.542;-2.970;2023-04-06T11:07:26;7.50;;;1.52;;
77136;SDS011;66102;48.542;-2.970;2023-04-06T11:09:54;6.90;;;1.70;;
77136;SDS011;66102;48.542;-2.970;2023-04-06T11:12:24;7.10;;;1.30;;
77136;SDS011;66102;48.542;-2.970;2023-04-06T11:14:57;6.78;;;1.48;;
77136;SDS011;66102;48.542;-2.970;2023-04-06T11:17:34;6.78;;;1.80;;
77136;SDS011;66102;48.542;-2.970;2023-04-06T11:20:01;5.97;;;1.10;;
77136;SDS011;66102;48.542;-2.970;2023-04-06T11:22:27;11.23;;;1.90;;
77136;SDS011;66102;48.542;-2.970;2023-04-06T11:25:04;8.32;;;1.45;;
77136;SDS011;66102;48.542;-2.970;2023-04-06T11:27:31;9.93;;;1.80;;
77136;SDS011;66102;48.542;-2.970;2023-04-06T11:29:59;7.95;;;1.58;;
77136;SDS011;66102;48.542;-2.970;2023-04-06T11:32:25;8.80;;;1.38;;
77136;SDS011;66102;48.542;-2.970;2023-04-06T11:34:51;6.82;;;2.00;;
77136;SDS011;66102;48.542;-2.970;2023-04-06T11:37:17;10.27;;;1.75;;
77136;SDS011;66102;48.542;-2.970;2023-04-06T11:39:51;6.55;;;1.50;;
77136;SDS011;66102;48.542;-2.970;2023-04-06T11:42:21;10.52;;;1.63;;
77136;SDS011;66102;48.542;-2.970;2023-04-06T11:44:49;7.63;;;1.77;;
77136;SDS011;66102;48.542;-2.970;2023-04-06T11:47:16;7.88;;;1.65;;
77136;SDS011;66102;48.542;-2.970;2023-04-06T11:49:43;9.57;;;2.00;;
77136;SDS011;66102;48.542;-2.970;2023-04-06T11:52:20;6.65;;;1.67;;
77136;SDS011;66102;48.542;-2.970;2023-04-06T11:54:47;5.95;;;1.33;;
77136;SDS011;66102;48.542;-2.970;2023-04-06T11:57:15;6.72;;;1.50;;
77136;SDS011;66102;48.542;-2.970;2023-04-06T11:59:41;8.73;;;1.75;;
77136;SDS011;66102;48.542;-2.970;2023-04-06T12:02:08;9.20;;;1.50;;
77136;SDS011;66102;48.542;-2.970;2023-04-06T12:04:34;7.05;;;1.30;;
77136;SDS011;66102;48.542;-2.970;2023-04-06T12:07:00;8.93;;;1.90;;
77136;SDS011;66102;48.542;-2.970;2023-04-06T12:09:26;5.15;;;1.50;;
77136;SDS011;66102;48.542;-2.970;2023-04-06T12:11:53;6.50;;;1.40;;
77136;SDS011;66102;48.542;-2.970;2023-04-06T12:14:19;9.20;;;1.85;;
77136;SDS011;66102;48.542;-2.970;2023-04-06T12:16:45;6.47;;;1.88;;
77136;SDS011;66102;48.542;-2.970;2023-04-06T12:19:11;9.20;;;1.60;;
77136;SDS011;66102;48.542;-2.970;2023-04-06T12:21:37;8.63;;;1.75;;
77136;SDS011;66102;48.542;-2.970;2023-04-06T12:24:03;10.35;;;1.67;;
77136;SDS011;66102;48.542;-2.970;2023-04-06T12:26:30;9.38;;;1.80;;
77136;SDS011;66102;48.542;-2.970;2023-04-06T12:28:56;7.13;;;2.03;;
77136;SDS011;66102;48.542;-2.970;2023-04-06T12:31:27;11.02;;;1.95;;
77136;SDS011;66102;48.542;-2.970;2023-04-06T12:33:53;7.68;;;1.92;;
77136;SDS011;66102;48.542;-2.970;2023-04-06T12:36:20;12.23;;;1.83;;
77136;SDS011;66102;48.542;-2.970;2023-04-06T12:38:46;7.93;;;1.65;;
77136;SDS011;66102;48.542;-2.970;2023-04-06T12:41:12;7.03;;;2.13;;
77136;SDS011;66102;48.542;-2.970;2023-04-06T12:43:39;12.30;;;1.88;;
77136;SDS011;66102;48.542;-2.970;2023-04-06T12:46:05;7.60;;;1.92;;
77136;SDS011;66102;48.542;-2.970;2023-04-06T12:48:31;8.68;;;1.75;;
77136;SDS011;66102;48.542;-2.970;2023-04-06T12:50:58;7.10;;;1.65;;
77136;SDS011;66102;48.542;-2.970;2023-04-06T12:53:25;8.82;;;1.65;;
77136;SDS011;66102;48.542;-2.970;2023-04-06T12:55:51;9.57;;;1.95;;
77136;SDS011;66102;48.542;-2.970;2023-04-06T12:58:18;8.55;;;1.80;;
77136;SDS011;66102;48.542;-2.970;2023-04-06T13:00:45;7.20;;;1.40;;
77136;SDS011;66102;48.542;-2.970;2023-04-06T13:03:11;6.10;;;1.40;;
77136;SDS011;66102;48.542;-2.970;2023-04-06T13:05:43;8.68;;;1.88;;
77136;SDS011;66102;48.542;-2.970;2023-04-06T13:08:09;9.40;;;1.85;;
77136;SDS011;66102;48.542;-2.970;2023-04-06T13:10:36;9.13;;;1.42;;
77136;SDS011;66102;48.542;-2.970;2023-04-06T13:13:02;8.15;;;1.80;;
77136;SDS011;66102;48.542;-2.970;2023-04-06T13:15:28;8.00;;;1.75;;
77136;SDS011;66102;48.542;-2.970;2023-04-06T13:17:54;7.22;;;1.63;;
77136;SDS011;66102;48.542;-2.970;2023-04-06T13:20:20;11.30;;;2.38;;
77136;SDS011;66102;48.542;-2.970;2023-04-06T13:22:49;9.73;;;1.95;;
77136;SDS011;66102;48.542;-2.970;2023-04-06T13:25:18;9.68;;;1.90;;
77136;SDS011;66102;48.542;-2.970;2023-04-06T13:27:45;8.90;;;1.40;;
77136;SDS011;66102;48.542;-2.970;2023-04-06T13:30:15;7.60;;;2.13;;
77136;SDS011;66102;48.542;-2.970;2023-04-06T13:32:42;7.60;;;1.60;;
77136;SDS011;66102;48.542;-2.970;2023-04-06T13:35:08;10.93;;;1.88;;
77136;SDS011;66102;48.542;-2.970;2023-04-06T13:37:38;5.45;;;1.40;;
77136;SDS011;66102;48.542;-2.970;2023-04-06T13:40:05;9.15;;;1.83;;
77136;SDS011;66102;48.542;-2.970;2023-04-06T13:42:31;9.60;;;1.58;;
77136;SDS011;66102;48.542;-2.970;2023-04-06T13:44:58;6.40;;;1.40;;
77136;SDS011;66102;48.542;-2.970;2023-04-06T13:47:24;7.40;;;1.58;;
77136;SDS011;66102;48.542;-2.970;2023-04-06T13:49:50;6.90;;;1.50;;
77136;SDS011;66102;48.542;-2.970;2023-04-06T13:52:17;8.13;;;1.60;;
77136;SDS011;66102;48.542;-2.970;2023-04-06T13:54:44;5.13;;;1.80;;
77136;SDS011;66102;48.542;-2.970;2023-04-06T13:57:10;8.98;;;1.60;;
77136;SDS011;66102;48.542;-2.970;2023-04-06T13:59:37;9.13;;;1.40;;
77136;SDS011;66102;48.542;-2.970;2023-04-06T14:02:04;6.60;;;1.60;;
77136;SDS011;66102;48.542;-2.970;2023-04-06T14:04:30;6.15;;;1.60;;
77136;SDS011;66102;48.542;-2.970;2023-04-06T14:06:56;11.90;;;2.08;;
77136;SDS011;66102;48.542;-2.970;2023-04-06T14:09:23;6.38;;;1.42;;
77136;SDS011;66102;48.542;-2.970;2023-04-06T14:11:49;4.10;;;1.25;;
77136;SDS011;66102;48.542;-2.970;2023-04-06T14:14:16;5.78;;;1.50;;
77136;SDS011;66102;48.542;-2.970;2023-04-06T14:16:42;4.72;;;1.15;;
77136;SDS011;66102;48.542;-2.970;2023-04-06T14:19:09;5.70;;;1.10;;
77136;SDS011;66102;48.542;-2.970;2023-04-06T14:21:37;3.28;;;0.95;;
77136;SDS011;66102;48.542;-2.970;2023-04-06T14:24:04;7.80;;;1.20;;
77136;SDS011;66102;48.542;-2.970;2023-04-06T14:26:30;4.32;;;1.08;;
77136;SDS011;66102;48.542;-2.970;2023-04-06T14:28:57;3.33;;;1.02;;
77136;SDS011;66102;48.542;-2.970;2023-04-06T14:31:25;4.38;;;1.10;;
77136;SDS011;66102;48.542;-2.970;2023-04-06T14:33:55;4.28;;;1.10;;
77136;SDS011;66102;48.542;-2.970;2023-04-06T14:36:21;4.78;;;1.15;;
77136;SDS011;66102;48.542;-2.970;2023-04-06T14:38:52;4.55;;;1.10;;
77136;SDS011;66102;48.542;-2.970;2023-04-06T14:41:20;4.97;;;0.95;;